sensor_id;sensor_type;location;lat;lon;timestamp;pressure;altitude;pressure_sealevel;temperature;humidity
48041;BME280;33815;48.386;11.738;2022-12-29T00:02:00;96386.03;;;-0.74;100.00
48041;BME280;33815;48.386;11.738;2022-12-29T00:04:25;96370.00;;;-0.77;100.00
48041;BME280;33815;48.386;11.738;2022-12-29T00:06:52;96371.97;;;-0.66;100.00
48041;BME280;33815;48.386;11.738;2022-12-29T00:09:17;96360.75;;;-0.64;100.00
48041;BME280;33815;48.386;11.738;2022-12-29T00:11:42;96354.16;;;-0.68;100.00
48041;BME280;33815;48.386;11.738;2022-12-29T00:14:09;96367.75;;;-0.52;100.00
48041;BME280;33815;48.386;11.738;2022-12-29T00:16:53;96362.34;;;-0.47;100.00
48041;BME280;33815;48.386;11.738;2022-12-29T00:19:19;96358.63;;;-0.41;100.00
48041;BME280;33815;48.386;11.738;2022-12-29T00:22:03;96351.84;;;-0.42;100.00
48041;BME280;33815;48.386;11.738;2022-12-29T00:24:47;96352.13;;;-0.32;100.00
48041;BME280;33815;48.386;11.738;2022-12-29T00:27:19;96355.44;;;-0.30;100.00
48041;BME280;33815;48.386;11.738;2022-12-29T00:30:08;96360.66;;;-0.18;100.00
48041;BME280;33815;48.386;11.738;2022-12-29T00:32:52;96358.56;;;-0.25;100.00
48041;BME280;33815;48.386;11.738;2022-12-29T00:35:44;96344.44;;;-0.32;100.00
48041;BME280;33815;48.386;11.738;2022-12-29T00:38:11;96340.88;;;-0.44;100.00
48041;BME280;33815;48.386;11.738;2022-12-29T00:40:56;96355.88;;;-0.38;100.00
48041;BME280;33815;48.386;11.738;2022-12-29T00:43:40;96347.06;;;-0.48;100.00
48041;BME280;33815;48.386;11.738;2022-12-29T00:46:24;96359.16;;;-0.50;100.00
48041;BME280;33815;48.386;11.738;2022-12-29T00:48:49;96366.44;;;-0.59;100.00
48041;BME280;33815;48.386;11.738;2022-12-29T00:51:34;96356.88;;;-0.71;100.00
48041;BME280;33815;48.386;11.738;2022-12-29T00:53:59;96341.84;;;-0.77;100.00
48041;BME280;33815;48.386;11.738;2022-12-29T00:56:24;96355.91;;;-0.84;100.00
48041;BME280;33815;48.386;11.738;2022-12-29T00:58:50;96354.59;;;-0.92;100.00
48041;BME280;33815;48.386;11.738;2022-12-29T01:01:15;96358.59;;;-1.02;100.00
48041;BME280;33815;48.386;11.738;2022-12-29T01:03:40;96357.13;;;-1.06;100.00
48041;BME280;33815;48.386;11.738;2022-12-29T01:06:08;96356.13;;;-1.19;100.00
48041;BME280;33815;48.386;11.738;2022-12-29T01:08:34;96362.72;;;-1.15;100.00
48041;BME280;33815;48.386;11.738;2022-12-29T01:11:05;96364.94;;;-1.25;100.00
48041;BME280;33815;48.386;11.738;2022-12-29T01:13:31;96360.09;;;-1.30;100.00
48041;BME280;33815;48.386;11.738;2022-12-29T01:15:57;96346.72;;;-1.51;100.00
48041;BME280;33815;48.386;11.738;2022-12-29T01:18:23;96357.28;;;-1.41;100.00
48041;BME280;33815;48.386;11.738;2022-12-29T01:20:49;96340.63;;;-1.48;100.00
48041;BME280;33815;48.386;11.738;2022-12-29T01:23:15;96366.34;;;-1.35;100.00
48041;BME280;33815;48.386;11.738;2022-12-29T01:25:41;96363.72;;;-1.34;100.00
48041;BME280;33815;48.386;11.738;2022-12-29T01:28:06;96346.72;;;-1.51;100.00
48041;BME280;33815;48.386;11.738;2022-12-29T01:30:36;96363.63;;;-1.48;100.00
48041;BME280;33815;48.386;11.738;2022-12-29T01:33:01;96363.13;;;-1.55;100.00
48041;BME280;33815;48.386;11.738;2022-12-29T01:35:27;96355.47;;;-1.55;100.00
48041;BME280;33815;48.386;11.738;2022-12-29T01:37:53;96359.84;;;-1.57;100.00
48041;BME280;33815;48.386;11.738;2022-12-29T01:40:19;96350.69;;;-1.61;100.00
48041;BME280;33815;48.386;11.738;2022-12-29T01:42:44;96335.50;;;-1.64;100.00
48041;BME280;33815;48.386;11.738;2022-12-29T01:45:12;96351.84;;;-1.35;100.00
48041;BME280;33815;48.386;11.738;2022-12-29T01:50:23;96358.34;;;-1.45;100.00
48041;BME280;33815;48.386;11.738;2022-12-29T01:52:55;96348.47;;;-1.51;100.00
48041;BME280;33815;48.386;11.738;2022-12-29T01:55:22;96341.44;;;-1.64;100.00
48041;BME280;33815;48.386;11.738;2022-12-29T01:57:50;96350.59;;;-1.60;100.00
48041;BME280;33815;48.386;11.738;2022-12-29T02:00:18;96345.22;;;-1.55;100.00
48041;BME280;33815;48.386;11.738;2022-12-29T02:02:47;96338.56;;;-1.58;100.00
48041;BME280;33815;48.386;11.738;2022-12-29T02:05:22;96323.22;;;-1.58;100.00
48041;BME280;33815;48.386;11.738;2022-12-29T02:07:50;96329.16;;;-1.57;100.00
48041;BME280;33815;48.386;11.738;2022-12-29T02:10:19;96323.88;;;-1.54;100.00
48041;BME280;33815;48.386;11.738;2022-12-29T02:12:45;96332.03;;;-1.47;100.00
48041;BME280;33815;48.386;11.738;2022-12-29T02:15:10;96316.53;;;-1.60;100.00
48041;BME280;33815;48.386;11.738;2022-12-29T02:17:41;96326.53;;;-1.56;100.00
48041;BME280;33815;48.386;11.738;2022-12-29T02:23:02;96328.31;;;-1.58;100.00
48041;BME280;33815;48.386;11.738;2022-12-29T02:25:49;96341.78;;;-1.54;100.00
48041;BME280;33815;48.386;11.738;2022-12-29T02:39:34;96330.16;;;-1.60;100.00
48041;BME280;33815;48.386;11.738;2022-12-29T02:42:13;96323.88;;;-1.54;100.00
48041;BME280;33815;48.386;11.738;2022-12-29T02:45:02;96321.00;;;-1.64;100.00
48041;BME280;33815;48.386;11.738;2022-12-29T02:47:37;96320.75;;;-1.59;100.00
48041;BME280;33815;48.386;11.738;2022-12-29T02:50:19;96302.28;;;-1.64;100.00
48041;BME280;33815;48.386;11.738;2022-12-29T02:52:50;96309.97;;;-1.48;100.00
48041;BME280;33815;48.386;11.738;2022-12-29T02:55:17;96330.47;;;-1.34;100.00
48041;BME280;33815;48.386;11.738;2022-12-29T02:57:42;96327.56;;;-1.28;100.00
48041;BME280;33815;48.386;11.738;2022-12-29T03:00:14;96309.63;;;-1.26;100.00
48041;BME280;33815;48.386;11.738;2022-12-29T03:08:31;96312.56;;;-1.02;100.00
48041;BME280;33815;48.386;11.738;2022-12-29T03:11:06;96286.31;;;-1.06;100.00
48041;BME280;33815;48.386;11.738;2022-12-29T03:13:57;96291.63;;;-0.94;100.00
48041;BME280;33815;48.386;11.738;2022-12-29T03:16:57;96305.41;;;-0.81;100.00
48041;BME280;33815;48.386;11.738;2022-12-29T03:19:41;96277.69;;;-0.89;100.00
48041;BME280;33815;48.386;11.738;2022-12-29T03:22:15;96290.53;;;-0.74;100.00
48041;BME280;33815;48.386;11.738;2022-12-29T03:24:54;96290.75;;;-0.63;100.00
48041;BME280;33815;48.386;11.738;2022-12-29T03:27:25;96289.81;;;-0.62;100.00
48041;BME280;33815;48.386;11.738;2022-12-29T03:29:57;96279.84;;;-0.66;100.00
48041;BME280;33815;48.386;11.738;2022-12-29T03:32:25;96292.75;;;-0.54;100.00
48041;BME280;33815;48.386;11.738;2022-12-29T03:34:53;96281.41;;;-0.49;100.00
48041;BME280;33815;48.386;11.738;2022-12-29T03:37:26;96276.56;;;-0.54;100.00
48041;BME280;33815;48.386;11.738;2022-12-29T03:39:53;96281.59;;;-0.38;100.00
48041;BME280;33815;48.386;11.738;2022-12-29T03:42:23;96288.94;;;-0.32;100.00
48041;BME280;33815;48.386;11.738;2022-12-29T03:44:54;96286.38;;;-0.18;100.00
48041;BME280;33815;48.386;11.738;2022-12-29T03:47:22;96268.19;;;-0.27;100.00
48041;BME280;33815;48.386;11.738;2022-12-29T03:49:48;96274.50;;;-0.19;100.00
48041;BME280;33815;48.386;11.738;2022-12-29T03:52:14;96270.47;;;-0.23;100.00
48041;BME280;33815;48.386;11.738;2022-12-29T03:54:39;96279.78;;;-0.07;100.00
48041;BME280;33815;48.386;11.738;2022-12-29T03:57:04;96294.16;;;-0.05;100.00
48041;BME280;33815;48.386;11.738;2022-12-29T03:59:30;96271.19;;;-0.06;100.00
48041;BME280;33815;48.386;11.738;2022-12-29T04:01:55;96292.72;;;0.06;100.00
48041;BME280;33815;48.386;11.738;2022-12-29T04:04:20;96288.28;;;0.22;100.00
48041;BME280;33815;48.386;11.738;2022-12-29T04:06:46;96286.56;;;0.23;100.00
48041;BME280;33815;48.386;11.738;2022-12-29T04:09:11;96274.94;;;0.17;100.00
48041;BME280;33815;48.386;11.738;2022-12-29T04:11:36;96291.66;;;0.37;100.00
48041;BME280;33815;48.386;11.738;2022-12-29T04:14:01;96289.91;;;0.38;100.00
48041;BME280;33815;48.386;11.738;2022-12-29T04:16:27;96287.34;;;0.38;100.00
48041;BME280;33815;48.386;11.738;2022-12-29T04:18:52;96285.53;;;0.40;100.00
48041;BME280;33815;48.386;11.738;2022-12-29T04:21:17;96281.56;;;0.48;100.00
48041;BME280;33815;48.386;11.738;2022-12-29T04:23:42;96281.47;;;0.50;100.00
48041;BME280;33815;48.386;11.738;2022-12-29T04:26:08;96281.16;;;0.55;100.00
48041;BME280;33815;48.386;11.738;2022-12-29T04:28:34;96280.44;;;0.53;100.00
48041;BME280;33815;48.386;11.738;2022-12-29T04:31:00;96274.41;;;0.54;100.00
48041;BME280;33815;48.386;11.738;2022-12-29T04:33:25;96269.91;;;0.57;100.00
48041;BME280;33815;48.386;11.738;2022-12-29T04:35:51;96254.00;;;0.52;100.00
48041;BME280;33815;48.386;11.738;2022-12-29T04:38:19;96264.09;;;0.68;100.00
48041;BME280;33815;48.386;11.738;2022-12-29T04:40:44;96266.56;;;0.70;100.00
48041;BME280;33815;48.386;11.738;2022-12-29T04:43:10;96257.66;;;0.75;100.00
48041;BME280;33815;48.386;11.738;2022-12-29T04:45:36;96250.84;;;0.89;100.00
48041;BME280;33815;48.386;11.738;2022-12-29T04:48:01;96244.16;;;0.86;100.00
48041;BME280;33815;48.386;11.738;2022-12-29T04:50:27;96249.91;;;0.90;100.00
48041;BME280;33815;48.386;11.738;2022-12-29T04:52:52;96233.25;;;0.82;100.00
48041;BME280;33815;48.386;11.738;2022-12-29T04:55:17;96247.06;;;0.94;100.00
48041;BME280;33815;48.386;11.738;2022-12-29T04:57:43;96247.56;;;0.99;100.00
48041;BME280;33815;48.386;11.738;2022-12-29T05:00:08;96259.19;;;1.05;100.00
48041;BME280;33815;48.386;11.738;2022-12-29T05:02:34;96253.66;;;1.11;100.00
48041;BME280;33815;48.386;11.738;2022-12-29T05:05:00;96249.41;;;0.97;100.00
48041;BME280;33815;48.386;11.738;2022-12-29T05:07:25;96244.38;;;0.96;100.00
48041;BME280;33815;48.386;11.738;2022-12-29T05:09:50;96250.03;;;1.01;100.00
48041;BME280;33815;48.386;11.738;2022-12-29T05:12:16;96255.31;;;1.12;100.00
48041;BME280;33815;48.386;11.738;2022-12-29T05:14:41;96237.03;;;1.04;100.00
48041;BME280;33815;48.386;11.738;2022-12-29T05:17:07;96257.56;;;1.17;100.00
48041;BME280;33815;48.386;11.738;2022-12-29T05:19:32;96257.56;;;1.17;100.00
48041;BME280;33815;48.386;11.738;2022-12-29T05:21:57;96268.28;;;1.24;100.00
48041;BME280;33815;48.386;11.738;2022-12-29T05:24:23;96265.81;;;1.22;100.00
48041;BME280;33815;48.386;11.738;2022-12-29T05:26:48;96258.59;;;1.27;100.00
48041;BME280;33815;48.386;11.738;2022-12-29T05:29:13;96248.97;;;1.18;100.00
48041;BME280;33815;48.386;11.738;2022-12-29T05:31:39;96264.59;;;1.28;100.00
48041;BME280;33815;48.386;11.738;2022-12-29T05:34:04;96258.00;;;1.24;100.00
48041;BME280;33815;48.386;11.738;2022-12-29T05:36:30;96261.81;;;1.31;100.00
48041;BME280;33815;48.386;11.738;2022-12-29T05:38:55;96259.78;;;1.49;100.00
48041;BME280;33815;48.386;11.738;2022-12-29T05:41:20;96262.75;;;1.81;100.00
48041;BME280;33815;48.386;11.738;2022-12-29T05:43:46;96253.16;;;1.83;100.00
48041;BME280;33815;48.386;11.738;2022-12-29T05:46:11;96239.50;;;1.96;100.00
48041;BME280;33815;48.386;11.738;2022-12-29T05:48:36;96252.44;;;2.07;100.00
48041;BME280;33815;48.386;11.738;2022-12-29T05:51:01;96240.50;;;2.06;100.00
48041;BME280;33815;48.386;11.738;2022-12-29T05:53:27;96252.72;;;2.15;100.00
48041;BME280;33815;48.386;11.738;2022-12-29T05:55:52;96249.41;;;2.26;100.00
48041;BME280;33815;48.386;11.738;2022-12-29T05:58:18;96256.00;;;2.30;100.00
48041;BME280;33815;48.386;11.738;2022-12-29T06:00:43;96251.03;;;2.40;100.00
48041;BME280;33815;48.386;11.738;2022-12-29T06:03:09;96251.63;;;2.44;100.00
48041;BME280;33815;48.386;11.738;2022-12-29T06:05:34;96253.78;;;2.74;100.00
48041;BME280;33815;48.386;11.738;2022-12-29T06:07:59;96259.44;;;2.79;100.00
48041;BME280;33815;48.386;11.738;2022-12-29T06:10:25;96240.34;;;2.82;100.00
48041;BME280;33815;48.386;11.738;2022-12-29T06:12:50;96249.91;;;3.04;98.17
48041;BME280;33815;48.386;11.738;2022-12-29T06:15:17;96257.81;;;2.89;100.00
48041;BME280;33815;48.386;11.738;2022-12-29T06:17:42;96255.34;;;2.88;99.73
48041;BME280;33815;48.386;11.738;2022-12-29T06:20:08;96236.72;;;2.84;99.14
48041;BME280;33815;48.386;11.738;2022-12-29T06:22:35;96242.25;;;2.91;99.03
48041;BME280;33815;48.386;11.738;2022-12-29T06:25:00;96244.28;;;2.74;99.89
48041;BME280;33815;48.386;11.738;2022-12-29T06:27:26;96254.91;;;2.94;98.02
48041;BME280;33815;48.386;11.738;2022-12-29T06:29:52;96246.22;;;2.84;97.77
48041;BME280;33815;48.386;11.738;2022-12-29T06:32:17;96260.78;;;2.96;98.03
48041;BME280;33815;48.386;11.738;2022-12-29T06:34:42;96256.94;;;3.02;96.42
48041;BME280;33815;48.386;11.738;2022-12-29T06:37:09;96248.94;;;2.94;96.77
48041;BME280;33815;48.386;11.738;2022-12-29T06:39:34;96253.75;;;2.98;97.99
48041;BME280;33815;48.386;11.738;2022-12-29T06:42:00;96253.94;;;2.84;97.92
48041;BME280;33815;48.386;11.738;2022-12-29T06:44:25;96256.91;;;2.90;98.40
48041;BME280;33815;48.386;11.738;2022-12-29T06:46:50;96262.25;;;2.87;100.00
48041;BME280;33815;48.386;11.738;2022-12-29T06:49:16;96247.94;;;2.83;98.83
48041;BME280;33815;48.386;11.738;2022-12-29T06:51:41;96267.38;;;2.87;99.72
48041;BME280;33815;48.386;11.738;2022-12-29T06:54:07;96269.00;;;2.77;100.00
48041;BME280;33815;48.386;11.738;2022-12-29T06:56:32;96269.72;;;2.79;99.62
48041;BME280;33815;48.386;11.738;2022-12-29T06:58:57;96270.25;;;2.96;97.39
48041;BME280;33815;48.386;11.738;2022-12-29T07:01:25;96252.88;;;3.11;95.63
48041;BME280;33815;48.386;11.738;2022-12-29T07:03:50;96268.78;;;3.04;94.97
48041;BME280;33815;48.386;11.738;2022-12-29T07:06:15;96273.44;;;2.99;96.35
48041;BME280;33815;48.386;11.738;2022-12-29T07:08:41;96277.56;;;2.89;97.83
48041;BME280;33815;48.386;11.738;2022-12-29T07:11:06;96274.63;;;2.82;98.94
48041;BME280;33815;48.386;11.738;2022-12-29T07:13:31;96276.22;;;2.72;99.48
48041;BME280;33815;48.386;11.738;2022-12-29T07:15:56;96293.25;;;2.62;100.00
48041;BME280;33815;48.386;11.738;2022-12-29T07:18:22;96283.81;;;2.49;100.00
48041;BME280;33815;48.386;11.738;2022-12-29T07:20:47;96291.22;;;2.54;100.00
48041;BME280;33815;48.386;11.738;2022-12-29T07:23:13;96286.66;;;2.57;100.00
48041;BME280;33815;48.386;11.738;2022-12-29T07:25:38;96300.44;;;2.56;100.00
48041;BME280;33815;48.386;11.738;2022-12-29T07:28:05;96303.25;;;2.53;100.00
48041;BME280;33815;48.386;11.738;2022-12-29T07:30:31;96296.56;;;2.51;100.00
48041;BME280;33815;48.386;11.738;2022-12-29T07:32:56;96304.59;;;2.46;100.00
48041;BME280;33815;48.386;11.738;2022-12-29T07:35:21;96300.66;;;2.53;100.00
48041;BME280;33815;48.386;11.738;2022-12-29T07:37:47;96300.06;;;2.50;100.00
48041;BME280;33815;48.386;11.738;2022-12-29T07:40:13;96319.66;;;2.77;100.00
48041;BME280;33815;48.386;11.738;2022-12-29T07:42:39;96303.13;;;2.92;99.95
48041;BME280;33815;48.386;11.738;2022-12-29T07:45:05;96301.69;;;3.12;97.96
48041;BME280;33815;48.386;11.738;2022-12-29T07:47:30;96294.91;;;3.22;95.23
48041;BME280;33815;48.386;11.738;2022-12-29T07:49:55;96300.03;;;3.11;97.35
48041;BME280;33815;48.386;11.738;2022-12-29T07:52:20;96297.94;;;3.16;98.07
48041;BME280;33815;48.386;11.738;2022-12-29T07:54:46;96283.97;;;3.43;93.42
48041;BME280;33815;48.386;11.738;2022-12-29T07:57:11;96289.59;;;3.37;93.44
48041;BME280;33815;48.386;11.738;2022-12-29T07:59:36;96295.41;;;3.28;92.92
48041;BME280;33815;48.386;11.738;2022-12-29T08:02:02;96304.09;;;3.38;91.98
48041;BME280;33815;48.386;11.738;2022-12-29T08:04:27;96304.34;;;3.35;93.38
48041;BME280;33815;48.386;11.738;2022-12-29T08:06:52;96292.50;;;3.32;92.30
48041;BME280;33815;48.386;11.738;2022-12-29T08:09:18;96318.41;;;3.42;93.90
48041;BME280;33815;48.386;11.738;2022-12-29T08:11:43;96318.91;;;3.47;96.42
48041;BME280;33815;48.386;11.738;2022-12-29T08:14:09;96291.81;;;3.30;96.86
48041;BME280;33815;48.386;11.738;2022-12-29T08:16:35;96302.59;;;3.35;96.90
48041;BME280;33815;48.386;11.738;2022-12-29T08:19:00;96304.19;;;3.60;95.79
48041;BME280;33815;48.386;11.738;2022-12-29T08:21:29;96297.59;;;3.45;97.00
48041;BME280;33815;48.386;11.738;2022-12-29T08:23:54;96291.53;;;3.80;93.25
48041;BME280;33815;48.386;11.738;2022-12-29T08:26:20;96292.28;;;4.05;89.46
48041;BME280;33815;48.386;11.738;2022-12-29T08:28:45;96294.84;;;4.39;88.01
48041;BME280;33815;48.386;11.738;2022-12-29T08:31:10;96295.56;;;4.41;87.96
48041;BME280;33815;48.386;11.738;2022-12-29T08:33:36;96301.88;;;4.48;87.67
48041;BME280;33815;48.386;11.738;2022-12-29T08:36:06;96299.31;;;4.48;90.24
48041;BME280;33815;48.386;11.738;2022-12-29T08:38:31;96300.09;;;4.49;92.74
48041;BME280;33815;48.386;11.738;2022-12-29T08:40:58;96300.91;;;4.72;88.70
48041;BME280;33815;48.386;11.738;2022-12-29T08:43:24;96301.72;;;4.72;91.53
48041;BME280;33815;48.386;11.738;2022-12-29T08:45:50;96309.53;;;4.93;87.08
48041;BME280;33815;48.386;11.738;2022-12-29T08:48:15;96295.34;;;4.88;85.47
48041;BME280;33815;48.386;11.738;2022-12-29T08:50:44;96282.47;;;5.09;83.18
48041;BME280;33815;48.386;11.738;2022-12-29T08:53:10;96308.13;;;5.33;80.71
48041;BME280;33815;48.386;11.738;2022-12-29T08:55:35;96299.22;;;5.47;81.40
48041;BME280;33815;48.386;11.738;2022-12-29T08:58:01;96309.59;;;5.68;80.46
48041;BME280;33815;48.386;11.738;2022-12-29T09:00:26;96305.69;;;5.74;79.57
48041;BME280;33815;48.386;11.738;2022-12-29T09:02:51;96312.78;;;6.03;76.76
48041;BME280;33815;48.386;11.738;2022-12-29T09:05:16;96310.88;;;6.26;76.92
48041;BME280;33815;48.386;11.738;2022-12-29T09:07:42;96301.22;;;6.38;75.33
48041;BME280;33815;48.386;11.738;2022-12-29T09:10:07;96309.50;;;6.62;74.63
48041;BME280;33815;48.386;11.738;2022-12-29T09:12:32;96306.97;;;6.92;71.93
48041;BME280;33815;48.386;11.738;2022-12-29T09:14:57;96301.81;;;7.01;71.62
48041;BME280;33815;48.386;11.738;2022-12-29T09:17:23;96288.97;;;7.10;69.70
48041;BME280;33815;48.386;11.738;2022-12-29T09:20:07;96297.84;;;7.66;68.50
48041;BME280;33815;48.386;11.738;2022-12-29T09:22:33;96299.28;;;7.88;66.94
48041;BME280;33815;48.386;11.738;2022-12-29T09:24:59;96301.91;;;8.26;64.51
48041;BME280;33815;48.386;11.738;2022-12-29T09:27:24;96297.09;;;8.31;64.60
48041;BME280;33815;48.386;11.738;2022-12-29T09:29:49;96270.09;;;8.51;62.33
48041;BME280;33815;48.386;11.738;2022-12-29T09:32:14;96289.53;;;8.75;62.53
48041;BME280;33815;48.386;11.738;2022-12-29T09:34:40;96296.09;;;8.97;64.21
48041;BME280;33815;48.386;11.738;2022-12-29T09:37:05;96285.41;;;9.36;62.01
48041;BME280;33815;48.386;11.738;2022-12-29T09:39:30;96262.38;;;9.41;60.93
48041;BME280;33815;48.386;11.738;2022-12-29T09:42:14;96264.84;;;9.69;58.54
48041;BME280;33815;48.386;11.738;2022-12-29T09:45:05;96271.72;;;9.78;57.09
48041;BME280;33815;48.386;11.738;2022-12-29T09:47:33;96259.97;;;9.48;58.30
48041;BME280;33815;48.386;11.738;2022-12-29T09:50:03;96260.63;;;9.50;59.71
48041;BME280;33815;48.386;11.738;2022-12-29T09:52:43;96283.97;;;9.60;58.77
48041;BME280;33815;48.386;11.738;2022-12-29T09:55:14;96266.06;;;9.57;59.07
48041;BME280;33815;48.386;11.738;2022-12-29T10:00:16;96296.25;;;9.50;60.38
48041;BME280;33815;48.386;11.738;2022-12-29T10:02:59;96286.47;;;9.70;61.54
48041;BME280;33815;48.386;11.738;2022-12-29T10:05:36;96298.00;;;9.67;60.54
48041;BME280;33815;48.386;11.738;2022-12-29T10:08:26;96293.25;;;9.63;62.89
48041;BME280;33815;48.386;11.738;2022-12-29T10:10:56;96267.47;;;9.77;61.22
48041;BME280;33815;48.386;11.738;2022-12-29T10:16:17;96284.91;;;10.03;62.04
48041;BME280;33815;48.386;11.738;2022-12-29T10:19:05;96278.28;;;10.09;61.81
48041;BME280;33815;48.386;11.738;2022-12-29T10:21:45;96275.97;;;10.06;62.09
48041;BME280;33815;48.386;11.738;2022-12-29T10:24:13;96280.13;;;10.25;62.80
48041;BME280;33815;48.386;11.738;2022-12-29T10:26:42;96261.56;;;10.20;61.62
48041;BME280;33815;48.386;11.738;2022-12-29T10:31:48;96269.63;;;10.35;58.49
48041;BME280;33815;48.386;11.738;2022-12-29T10:36:47;96248.44;;;10.29;55.58
48041;BME280;33815;48.386;11.738;2022-12-29T10:39:28;96252.97;;;10.27;55.34
48041;BME280;33815;48.386;11.738;2022-12-29T10:44:30;96245.34;;;10.00;55.34
48041;BME280;33815;48.386;11.738;2022-12-29T10:47:03;96250.66;;;9.90;57.11
48041;BME280;33815;48.386;11.738;2022-12-29T10:49:30;96244.91;;;10.12;56.60
48041;BME280;33815;48.386;11.738;2022-12-29T10:51:59;96222.47;;;10.11;55.84
48041;BME280;33815;48.386;11.738;2022-12-29T10:54:32;96216.34;;;10.29;53.63
48041;BME280;33815;48.386;11.738;2022-12-29T10:57:19;96226.69;;;10.12;55.78
48041;BME280;33815;48.386;11.738;2022-12-29T10:59:48;96224.22;;;10.11;53.63
48041;BME280;33815;48.386;11.738;2022-12-29T11:07:38;96214.16;;;10.51;51.70
48041;BME280;33815;48.386;11.738;2022-12-29T11:10:37;96211.28;;;10.70;50.71
48041;BME280;33815;48.386;11.738;2022-12-29T11:13:27;96215.19;;;10.66;52.09
48041;BME280;33815;48.386;11.738;2022-12-29T11:15:53;96184.56;;;10.68;50.23
48041;BME280;33815;48.386;11.738;2022-12-29T11:18:39;96199.56;;;10.91;49.53
48041;BME280;33815;48.386;11.738;2022-12-29T11:21:23;96188.47;;;10.80;49.18
48041;BME280;33815;48.386;11.738;2022-12-29T11:23:58;96188.31;;;10.82;49.94
48041;BME280;33815;48.386;11.738;2022-12-29T11:26:24;96192.50;;;10.58;49.87
48041;BME280;33815;48.386;11.738;2022-12-29T11:29:11;96213.38;;;10.67;50.80
48041;BME280;33815;48.386;11.738;2022-12-29T11:31:46;96196.88;;;10.41;52.17
48041;BME280;33815;48.386;11.738;2022-12-29T11:34:24;96215.13;;;10.50;53.32
48041;BME280;33815;48.386;11.738;2022-12-29T11:37:01;96209.97;;;10.66;51.14
48041;BME280;33815;48.386;11.738;2022-12-29T11:39:38;96199.06;;;10.79;49.41
48041;BME280;33815;48.386;11.738;2022-12-29T11:42:10;96200.84;;;10.62;50.29
48041;BME280;33815;48.386;11.738;2022-12-29T11:44:38;96196.94;;;10.66;49.17
48041;BME280;33815;48.386;11.738;2022-12-29T11:47:10;96188.56;;;10.46;50.06
48041;BME280;33815;48.386;11.738;2022-12-29T11:49:36;96195.75;;;10.44;50.04
48041;BME280;33815;48.386;11.738;2022-12-29T11:52:01;96192.16;;;10.37;52.14
48041;BME280;33815;48.386;11.738;2022-12-29T11:54:30;96203.44;;;10.62;51.57
48041;BME280;33815;48.386;11.738;2022-12-29T11:56:57;96206.88;;;10.71;51.67
48041;BME280;33815;48.386;11.738;2022-12-29T11:59:34;96178.84;;;10.73;49.80
48041;BME280;33815;48.386;11.738;2022-12-29T12:05:24;96192.75;;;11.23;51.98
48041;BME280;33815;48.386;11.738;2022-12-29T12:08:11;96188.31;;;11.48;51.28
48041;BME280;33815;48.386;11.738;2022-12-29T12:10:46;96178.25;;;11.93;49.22
48041;BME280;33815;48.386;11.738;2022-12-29T12:16:06;96184.97;;;11.95;51.12
48041;BME280;33815;48.386;11.738;2022-12-29T12:19:00;96175.34;;;11.96;50.55
48041;BME280;33815;48.386;11.738;2022-12-29T12:21:33;96172.72;;;11.96;50.24
48041;BME280;33815;48.386;11.738;2022-12-29T12:32:18;96154.38;;;12.12;49.08
48041;BME280;33815;48.386;11.738;2022-12-29T12:34:47;96154.06;;;12.07;49.25
48041;BME280;33815;48.386;11.738;2022-12-29T12:37:47;96149.34;;;12.03;49.80
48041;BME280;33815;48.386;11.738;2022-12-29T12:40:32;96154.91;;;12.08;51.10
48041;BME280;33815;48.386;11.738;2022-12-29T13:00:04;96151.81;;;11.96;50.66
48041;BME280;33815;48.386;11.738;2022-12-29T13:02:43;96150.06;;;11.80;50.79
48041;BME280;33815;48.386;11.738;2022-12-29T13:05:31;96151.53;;;11.82;51.40
48041;BME280;33815;48.386;11.738;2022-12-29T13:11:21;96146.34;;;11.74;52.32
48041;BME280;33815;48.386;11.738;2022-12-29T13:13:43;96154.81;;;11.76;51.82
48041;BME280;33815;48.386;11.738;2022-12-29T13:19:04;96149.91;;;11.73;52.08
48041;BME280;33815;48.386;11.738;2022-12-29T13:24:47;96150.25;;;11.70;53.69
48041;BME280;33815;48.386;11.738;2022-12-29T13:27:22;96154.72;;;11.53;54.04
48041;BME280;33815;48.386;11.738;2022-12-29T13:30:28;96152.22;;;11.60;54.65
48041;BME280;33815;48.386;11.738;2022-12-29T13:33:04;96148.97;;;11.66;53.62
48041;BME280;33815;48.386;11.738;2022-12-29T13:41:53;96145.25;;;11.52;55.88
48041;BME280;33815;48.386;11.738;2022-12-29T13:44:37;96153.25;;;11.51;57.47
48041;BME280;33815;48.386;11.738;2022-12-29T13:47:31;96159.44;;;11.41;58.40
48041;BME280;33815;48.386;11.738;2022-12-29T13:50:00;96155.53;;;11.37;58.72
48041;BME280;33815;48.386;11.738;2022-12-29T13:52:39;96167.78;;;11.45;58.64
48041;BME280;33815;48.386;11.738;2022-12-29T13:58:20;96167.28;;;11.33;59.34
48041;BME280;33815;48.386;11.738;2022-12-29T14:03:46;96171.38;;;11.27;60.18
48041;BME280;33815;48.386;11.738;2022-12-29T14:06:51;96170.56;;;11.27;59.49
48041;BME280;33815;48.386;11.738;2022-12-29T14:09:50;96167.63;;;11.22;60.53
48041;BME280;33815;48.386;11.738;2022-12-29T14:12:38;96159.31;;;11.02;60.60
48041;BME280;33815;48.386;11.738;2022-12-29T14:17:36;96177.06;;;10.98;61.12
48041;BME280;33815;48.386;11.738;2022-12-29T14:20:03;96163.72;;;10.76;61.70
48041;BME280;33815;48.386;11.738;2022-12-29T14:22:29;96152.63;;;10.74;61.46
48041;BME280;33815;48.386;11.738;2022-12-29T14:24:54;96181.13;;;10.84;62.06
48041;BME280;33815;48.386;11.738;2022-12-29T14:29:46;96172.97;;;10.62;62.96
48041;BME280;33815;48.386;11.738;2022-12-29T14:34:57;96179.97;;;10.54;63.26
48041;BME280;33815;48.386;11.738;2022-12-29T14:37:33;96177.53;;;10.52;62.90
48041;BME280;33815;48.386;11.738;2022-12-29T14:42:38;96182.16;;;10.32;64.37
48041;BME280;33815;48.386;11.738;2022-12-29T14:47:50;96179.88;;;10.29;64.30
48041;BME280;33815;48.386;11.738;2022-12-29T14:50:23;96173.25;;;10.35;64.41
48041;BME280;33815;48.386;11.738;2022-12-29T14:53:00;96192.94;;;10.37;64.83